Time;durP1;ratioP1;P1;durP2;ratioP2;P2;SDS_P1;SDS_P2;PMS_P1;PMS_P2;Temp;Humidity;BMP_temperature;BMP_pressure;BME280_temperature;BME280_humidity;BME280_pressure;Samples;Min_cycle;Max_cycle;Signal;HPM_P1;HPM_P2
2023/12/25 00:00:25;;;;;;;0.57;0.52;;;;;;;10.08;68.01;96319.16;6071020;23;20029;-81
2023/12/25 00:03:02;;;;;;;0.63;0.50;;;;;;;10.10;68.50;96318.97;6074177;23;20027;-81
2023/12/25 00:05:44;;;;;;;0.75;0.47;;;;;;;10.09;68.39;96312.16;6072561;23;20114;-80
2023/12/25 00:08:25;;;;;;;1.50;0.50;;;;;;;10.12;69.33;96327.41;6071648;23;20457;-81
2023/12/25 00:10:56;;;;;;;1.00;0.50;;;;;;;10.13;68.26;96331.63;6073289;23;20023;-81
2023/12/25 00:13:31;;;;;;;0.70;0.60;;;;;;;10.11;66.51;96328.41;6071960;23;20026;-81
2023/12/25 00:16:03;;;;;;;0.55;0.55;;;;;;;10.11;67.44;96320.59;6070908;23;20551;-82
2023/12/25 00:18:35;;;;;;;1.00;0.60;;;;;;;10.13;67.73;96316.00;6072610;23;20026;-81
2023/12/25 00:21:17;;;;;;;0.57;0.50;;;;;;;10.13;67.70;96321.22;6072220;23;20022;-82
2023/12/25 00:24:03;;;;;;;0.65;0.60;;;;;;;10.15;66.80;96323.63;6072480;23;20409;-81
2023/12/25 00:26:40;;;;;;;0.50;0.50;;;;;;;10.15;66.41;96331.47;6070966;23;20026;-81
2023/12/25 00:46:59;;;;;;;1.25;0.40;;;;;;;10.07;66.96;96342.78;6041383;23;20033;-82
2023/12/25 00:50:20;;;;;;;1.52;0.47;;;;;;;10.04;66.73;96332.75;5954929;24;20028;-82
2023/12/25 01:04:11;;;;;;;0.75;0.45;;;;;;;9.92;68.07;96318.59;5945562;23;20526;-82
2023/12/25 01:24:01;;;;;;;0.60;0.60;;;;;;;9.84;68.69;96312.50;5108156;27;20132;-81
2023/12/25 01:26:30;;;;;;;0.40;0.40;;;;;;;9.83;68.48;96316.09;5099639;28;20501;-81
2023/12/25 01:28:58;;;;;;;0.63;0.40;;;;;;;9.83;68.83;96310.88;5105710;28;20058;-81
2023/12/25 01:31:26;;;;;;;0.60;0.40;;;;;;;9.85;68.34;96313.31;5098898;28;20490;-81
2023/12/25 02:11:42;;;;;;;1.33;0.40;;;;;;;9.82;65.72;96316.28;4952061;29;20094;-82
2023/12/25 02:25:31;;;;;;;2.90;0.73;;;;;;;9.87;63.60;96342.59;5187261;23;20452;-81
2023/12/25 02:41:49;;;;;;;2.75;0.50;;;;;;;9.88;63.14;96339.81;4982202;28;20053;-81
2023/12/25 02:44:17;;;;;;;1.27;0.65;;;;;;;9.88;62.54;96334.59;4984749;28;20070;-80
2023/12/25 02:46:45;;;;;;;0.80;0.60;;;;;;;9.89;63.57;96338.00;4985209;28;20137;-81
2023/12/25 02:49:12;;;;;;;1.10;0.30;;;;;;;9.90;63.45;96337.00;4985738;28;20134;-81
2023/12/25 02:51:40;;;;;;;0.82;0.60;;;;;;;9.92;64.46;96334.22;4985277;28;20109;-81
2023/12/25 02:54:08;;;;;;;0.63;0.60;;;;;;;9.94;66.95;96329.63;4985343;28;20058;-81
2023/12/25 02:56:36;;;;;;;2.22;0.50;;;;;;;9.95;66.32;96336.44;4983847;28;20050;-81
2023/12/25 02:59:05;;;;;;;1.05;0.60;;;;;;;9.92;64.07;96331.59;4982711;28;20054;-81
2023/12/25 03:01:32;;;;;;;0.40;0.40;;;;;;;9.88;64.39;96342.41;4983225;28;20082;-81
2023/12/25 03:04:00;;;;;;;0.68;0.40;;;;;;;9.86;63.09;96341.78;4984392;28;20543;-81
2023/12/25 03:06:27;;;;;;;0.30;0.30;;;;;;;9.85;63.91;96319.31;4983263;28;20075;-81
2023/12/25 03:08:55;;;;;;;0.40;0.35;;;;;;;9.84;62.64;96316.91;4983348;28;20043;-81
2023/12/25 03:11:23;;;;;;;0.60;0.38;;;;;;;9.84;65.36;96317.72;4983865;28;20078;-81
2023/12/25 03:13:51;;;;;;;0.57;0.57;;;;;;;9.84;63.78;96320.31;4983689;28;20051;-81
2023/12/25 03:16:20;;;;;;;0.50;0.50;;;;;;;9.83;62.37;96313.47;4983657;28;20046;-81
2023/12/25 03:18:48;;;;;;;0.77;0.70;;;;;;;9.83;61.75;96321.28;4983206;28;20046;-81
2023/12/25 03:21:16;;;;;;;0.57;0.50;;;;;;;9.85;63.83;96314.09;4983479;28;20047;-81
2023/12/25 03:23:44;;;;;;;0.75;0.40;;;;;;;9.86;64.08;96309.69;4983643;28;20067;-81
2023/12/25 03:26:11;;;;;;;0.45;0.32;;;;;;;9.86;63.65;96312.28;4983903;28;20055;-81
2023/12/25 03:28:40;;;;;;;1.52;0.45;;;;;;;9.85;64.43;96319.31;4983483;28;20097;-80
2023/12/25 03:31:08;;;;;;;1.27;0.30;;;;;;;9.84;62.38;96325.53;4984197;28;20050;-80
2023/12/25 03:33:37;;;;;;;0.88;0.47;;;;;;;9.83;61.35;96323.09;4983185;28;20098;-81
2023/12/25 03:36:06;;;;;;;0.52;0.30;;;;;;;9.82;60.72;96317.09;4981860;28;20113;-81
2023/12/25 03:38:34;;;;;;;2.10;0.47;;;;;;;9.83;63.04;96316.09;4983223;28;20058;-81
2023/12/25 03:41:02;;;;;;;1.08;0.40;;;;;;;9.86;63.40;96320.94;4983987;28;20078;-81
2023/12/25 03:43:30;;;;;;;2.42;0.50;;;;;;;9.86;61.89;96318.34;4984677;28;20057;-81
2023/12/25 03:45:57;;;;;;;0.90;0.30;;;;;;;9.85;61.29;96324.53;4983112;28;20050;-81
2023/12/25 03:48:25;;;;;;;0.50;0.38;;;;;;;9.85;61.00;96327.13;4983620;28;20129;-81
2023/12/25 03:50:54;;;;;;;0.35;0.35;;;;;;;9.85;59.13;96319.31;4983308;28;20107;-81
2023/12/25 03:53:22;;;;;;;2.00;0.60;;;;;;;9.85;60.86;96321.91;4982592;28;20480;-81
2023/12/25 03:55:50;;;;;;;0.43;0.40;;;;;;;9.85;60.09;96319.31;4982990;28;20051;-81
2023/12/25 03:58:17;;;;;;;1.38;0.43;;;;;;;9.85;59.84;96324.53;4982211;28;20097;-81
2023/12/25 04:00:45;;;;;;;1.55;0.82;;;;;;;9.87;60.94;96321.75;4983080;28;20563;-81
2023/12/25 04:03:13;;;;;;;1.25;0.20;;;;;;;9.86;59.90;96310.53;4983705;28;20114;-81
2023/12/25 04:05:41;;;;;;;0.60;0.50;;;;;;;9.86;61.20;96318.34;4982784;28;20441;-81
2023/12/25 04:08:10;;;;;;;0.73;0.45;;;;;;;9.86;59.38;96331.38;4982631;28;20496;-81
2023/12/25 04:10:38;;;;;;;0.47;0.40;;;;;;;9.82;59.03;96309.28;4982569;28;20047;-80
2023/12/25 04:13:05;;;;;;;0.30;0.30;;;;;;;9.84;60.41;96317.72;4982800;28;20051;-81
2023/12/25 04:15:33;;;;;;;0.60;0.60;;;;;;;9.83;58.80;96323.09;4999252;28;20066;-80
2023/12/25 04:18:01;;;;;;;0.40;0.35;;;;;;;9.81;57.79;96323.28;4998826;28;20042;-80
2023/12/25 04:20:29;;;;;;;0.68;0.40;;;;;;;9.82;60.55;96332.72;4998757;28;20058;-81
2023/12/25 04:22:56;;;;;;;0.60;0.40;;;;;;;9.79;58.33;96327.84;4991147;28;20051;-81
2023/12/25 04:25:26;;;;;;;0.85;0.63;;;;;;;9.81;59.82;96325.06;4983574;28;20524;-81
2023/12/25 04:27:53;;;;;;;0.28;0.20;;;;;;;9.81;61.12;96336.28;4981387;28;20397;-81
2023/12/25 04:30:21;;;;;;;0.57;0.40;;;;;;;9.81;60.34;96323.28;4980873;28;20109;-81
2023/12/25 04:32:49;;;;;;;1.38;0.45;;;;;;;9.82;60.89;96314.47;4982028;28;20133;-81
2023/12/25 04:35:17;;;;;;;0.43;0.35;;;;;;;9.83;60.03;96315.28;4981126;28;20047;-81
2023/12/25 04:37:46;;;;;;;1.15;0.45;;;;;;;9.82;60.35;96313.69;4985429;28;20063;-82
2023/12/25 04:40:13;;;;;;;0.30;0.30;;;;;;;9.82;59.37;96322.28;4986324;28;20046;-81
2023/12/25 04:42:42;;;;;;;0.68;0.30;;;;;;;9.80;58.46;96326.09;4989064;28;20074;-81
2023/12/25 04:45:10;;;;;;;1.05;0.60;;;;;;;9.79;58.84;96316.63;4986194;28;20082;-81
2023/12/25 04:47:38;;;;;;;0.50;0.40;;;;;;;9.78;58.62;96317.63;4986371;28;20113;-81
2023/12/25 04:50:07;;;;;;;0.35;0.30;;;;;;;9.78;57.97;96323.66;4988036;28;20142;-81
2023/12/25 04:52:35;;;;;;;0.15;0.15;;;;;;;9.77;57.71;96340.25;4987566;28;20113;-81
2023/12/25 04:55:03;;;;;;;0.30;0.25;;;;;;;9.78;57.37;96339.28;4988189;28;20065;-81
2023/12/25 04:57:31;;;;;;;0.40;0.40;;;;;;;9.77;57.55;96329.84;4986490;28;20057;-81
2023/12/25 05:00:00;;;;;;;0.85;0.52;;;;;;;9.77;60.55;96344.66;4987451;28;20047;-81
2023/12/25 05:02:27;;;;;;;1.65;0.75;;;;;;;9.75;57.92;96347.47;4987998;28;20057;-81
2023/12/25 05:04:55;;;;;;;0.30;0.30;;;;;;;9.74;59.37;96338.03;4987662;28;20114;-81
2023/12/25 05:07:23;;;;;;;0.65;0.40;;;;;;;9.74;56.65;96340.63;4987118;28;20054;-81
2023/12/25 05:09:51;;;;;;;0.32;0.32;;;;;;;9.74;56.65;96332.81;4988595;28;20051;-81
2023/12/25 05:12:18;;;;;;;1.40;0.52;;;;;;;9.74;56.42;96327.59;4987308;28;20066;-81
2023/12/25 05:14:46;;;;;;;0.50;0.40;;;;;;;9.72;56.42;96319.16;4987169;28;20046;-81
2023/12/25 05:17:17;;;;;;;0.70;0.50;;;;;;;9.69;55.40;96325.56;4994466;28;20105;-80
2023/12/25 05:19:45;;;;;;;0.43;0.43;;;;;;;9.71;57.29;96327.97;4998142;28;20035;-81
2023/12/25 05:22:12;;;;;;;1.00;0.35;;;;;;;9.70;57.05;96321.16;4998552;28;20289;-81
2023/12/25 05:24:40;;;;;;;0.40;0.40;;;;;;;9.69;55.58;96333.38;4997240;28;20051;-81
2023/12/25 05:27:08;;;;;;;0.20;0.20;;;;;;;9.67;56.93;96331.94;4996930;28;20078;-80
2023/12/25 05:29:36;;;;;;;0.68;0.40;;;;;;;9.69;60.40;96332.56;4996626;28;20051;-81
2023/12/25 05:32:04;;;;;;;3.25;0.52;;;;;;;9.68;56.63;96326.53;4996740;28;20041;-81
2023/12/25 05:34:33;;;;;;;0.40;0.30;;;;;;;9.66;56.77;96327.72;4994376;28;20078;-81
2023/12/25 05:37:00;;;;;;;0.35;0.35;;;;;;;9.64;56.01;96325.31;4990519;28;20382;-81
2023/12/25 05:39:28;;;;;;;0.47;0.35;;;;;;;9.66;57.47;96332.91;4988498;28;20051;-81
2023/12/25 05:41:56;;;;;;;0.38;0.30;;;;;;;9.67;57.32;96337.16;4988637;28;20061;-81
2023/12/25 05:44:24;;;;;;;1.38;0.45;;;;;;;9.67;56.90;96339.75;4988344;28;20054;-81
2023/12/25 05:46:51;;;;;;;1.73;0.35;;;;;;;9.67;59.76;96355.38;4988794;28;20501;-80
2023/12/25 05:49:19;;;;;;;2.45;0.50;;;;;;;9.65;55.94;96354.75;4988242;28;20047;-81
2023/12/25 05:51:48;;;;;;;0.47;0.47;;;;;;;9.65;56.83;96349.53;4989172;28;20046;-81
2023/12/25 05:54:16;;;;;;;0.43;0.30;;;;;;;9.66;56.35;96346.75;4988842;28;20073;-81
2023/12/25 05:56:44;;;;;;;1.42;0.40;;;;;;;9.68;58.27;96338.75;4988035;28;20504;-81
2023/12/25 05:59:12;;;;;;;1.33;0.52;;;;;;;9.68;56.87;96323.13;4989544;28;20497;-81
2023/12/25 06:01:39;;;;;;;2.40;0.60;;;;;;;9.67;55.55;96329.34;4991471;28;20046;-81
2023/12/25 06:04:07;;;;;;;0.63;0.60;;;;;;;9.68;56.59;96328.34;4992223;28;20055;-81
2023/12/25 06:06:34;;;;;;;0.77;0.38;;;;;;;9.67;55.54;96313.72;4990833;28;20054;-81
2023/12/25 06:09:04;;;;;;;0.60;0.40;;;;;;;9.65;54.18;96332.13;4989962;28;20047;-81
2023/12/25 06:11:31;;;;;;;0.20;0.20;;;;;;;9.65;55.95;96345.13;4991163;28;20051;-81
2023/12/25 06:13:59;;;;;;;1.90;0.30;;;;;;;9.64;54.99;96335.72;4991766;28;20051;-81
2023/12/25 06:16:27;;;;;;;0.68;0.30;;;;;;;9.66;57.20;96340.72;4992304;28;20433;-81
2023/12/25 06:18:54;;;;;;;2.17;0.65;;;;;;;9.65;57.58;96326.09;4990622;28;20051;-81
2023/12/25 06:21:22;;;;;;;0.30;0.30;;;;;;;9.64;55.48;96327.06;4990751;28;20047;-81
2023/12/25 06:23:50;;;;;;;2.85;0.30;;;;;;;9.64;56.96;96329.69;4991717;28;20078;-81
2023/12/25 06:26:19;;;;;;;1.65;0.50;;;;;;;9.66;56.13;96325.94;4997937;28;20081;-81
2023/12/25 06:28:47;;;;;;;0.88;0.70;;;;;;;9.68;54.48;96338.75;5001058;28;20042;-80
2023/12/25 06:31:15;;;;;;;0.50;0.50;;;;;;;9.67;55.70;96334.53;4997420;28;20567;-81
2023/12/25 06:33:42;;;;;;;0.20;0.20;;;;;;;9.65;54.15;96339.13;4991320;28;20055;-80
2023/12/25 06:36:10;;;;;;;0.50;0.30;;;;;;;9.64;54.75;96353.13;4990380;28;20078;-81
2023/12/25 06:38:38;;;;;;;0.40;0.32;;;;;;;9.64;54.85;96347.91;4989877;28;20047;-80
2023/12/25 06:41:06;;;;;;;0.70;0.50;;;;;;;9.65;56.13;96350.34;4988249;28;20452;-81
2023/12/25 06:43:35;;;;;;;1.15;0.60;;;;;;;9.67;55.76;96352.78;4988768;28;20043;-81
2023/12/25 06:46:02;;;;;;;0.40;0.40;;;;;;;9.68;55.58;96351.78;4989059;28;20055;-81
2023/12/25 06:48:31;;;;;;;0.82;0.40;;;;;;;9.67;57.10;96342.34;4989185;28;20050;-81
2023/12/25 06:50:59;;;;;;;0.88;0.60;;;;;;;9.67;55.83;96352.78;4990078;28;20122;-81
2023/12/25 06:53:27;;;;;;;0.40;0.40;;;;;;;9.63;54.43;96356.72;4989852;28;20111;-81
2023/12/25 06:55:54;;;;;;;0.93;0.45;;;;;;;9.61;55.01;96356.91;4989058;28;20520;-81
2023/12/25 06:58:22;;;;;;;2.50;0.70;;;;;;;9.61;56.84;96369.13;4988672;28;20047;-81
2023/12/25 07:00:51;;;;;;;1.52;0.32;;;;;;;9.61;54.88;96372.53;4989472;28;20050;-81
2023/12/25 07:03:19;;;;;;;0.55;0.40;;;;;;;9.61;55.41;96375.13;4989500;28;20061;-81
2023/12/25 07:05:48;;;;;;;1.23;0.70;;;;;;;9.63;54.77;96361.94;4991071;28;20083;-81
2023/12/25 07:08:17;;;;;;;1.50;0.77;;;;;;;9.65;56.96;96371.19;4989794;28;20089;-80
2023/12/25 07:10:46;;;;;;;0.40;0.40;;;;;;;9.64;53.98;96372.19;4989501;28;20436;-81
2023/12/25 07:13:14;;;;;;;1.65;0.73;;;;;;;9.65;54.59;96383.41;4990399;28;20047;-81
2023/12/25 07:15:42;;;;;;;0.95;0.40;;;;;;;9.67;55.36;96378.81;4989501;28;20047;-81
2023/12/25 07:18:11;;;;;;;0.55;0.55;;;;;;;9.68;58.26;96390.84;4988278;28;20101;-81
2023/12/25 07:20:39;;;;;;;0.43;0.43;;;;;;;9.67;56.93;96390.03;4987903;28;20042;-81
2023/12/25 07:23:07;;;;;;;0.90;0.43;;;;;;;9.65;54.36;96386.81;4989250;28;20050;-81
2023/12/25 07:25:35;;;;;;;2.10;0.32;;;;;;;9.62;53.11;96386.34;4990086;28;20137;-81
2023/12/25 07:28:03;;;;;;;1.65;0.73;;;;;;;9.61;54.32;96382.94;4989328;28;20437;-81
2023/12/25 07:30:31;;;;;;;0.50;0.50;;;;;;;9.64;55.33;96376.56;4988414;28;20051;-81
2023/12/25 07:32:58;;;;;;;0.55;0.20;;;;;;;9.63;55.63;96388.78;4989619;28;20066;-81
2023/12/25 07:35:28;;;;;;;0.70;0.40;;;;;;;9.63;53.49;96387.97;4988783;28;20101;-81
2023/12/25 07:37:55;;;;;;;0.63;0.40;;;;;;;9.64;55.39;96400.00;4988365;28;20058;-81
2023/12/25 07:40:23;;;;;;;0.30;0.30;;;;;;;9.63;55.90;96394.00;4988444;28;20054;-81
2023/12/25 07:42:53;;;;;;;1.02;0.60;;;;;;;9.66;57.37;96398.03;4989591;28;20051;-81
2023/12/25 07:45:21;;;;;;;0.68;0.30;;;;;;;9.69;57.10;96392.47;4989673;28;20085;-81
2023/12/25 07:47:49;;;;;;;0.40;0.40;;;;;;;9.69;54.26;96393.28;4990598;28;20105;-80
2023/12/25 07:50:16;;;;;;;0.32;0.30;;;;;;;9.68;55.57;96391.63;4990221;28;20054;-81
2023/12/25 07:52:45;;;;;;;1.20;0.68;;;;;;;9.72;59.18;96396.50;4988985;28;20050;-81
2023/12/25 07:55:13;;;;;;;1.40;0.60;;;;;;;9.74;59.25;96403.16;4989653;28;20074;-81
2023/12/25 07:57:41;;;;;;;0.50;0.40;;;;;;;9.75;55.89;96407.38;4989701;28;20110;-81
2023/12/25 08:00:10;;;;;;;1.52;0.70;;;;;;;9.75;56.15;96406.53;4988557;28;20051;-81
2023/12/25 08:02:37;;;;;;;1.17;0.68;;;;;;;9.73;56.32;96409.34;4990019;28;20051;-81
2023/12/25 08:05:06;;;;;;;0.88;0.40;;;;;;;9.73;56.59;96414.56;4990201;28;20051;-81
2023/12/25 08:07:34;;;;;;;0.40;0.40;;;;;;;9.72;54.65;96418.16;4989617;28;20047;-81
2023/12/25 08:10:03;;;;;;;1.10;0.50;;;;;;;9.70;55.31;96431.34;4988626;28;20051;-81
2023/12/25 08:12:31;;;;;;;0.82;0.70;;;;;;;9.71;58.17;96432.16;4988786;28;20059;-80
2023/12/25 08:14:59;;;;;;;2.38;0.50;;;;;;;9.73;56.90;96435.41;4988467;28;20050;-81
2023/12/25 08:17:27;;;;;;;0.60;0.32;;;;;;;9.71;55.57;96434.78;4989371;28;20113;-81
2023/12/25 08:19:55;;;;;;;0.77;0.40;;;;;;;9.72;56.67;96433.78;4988026;28;20074;-81
2023/12/25 08:22:23;;;;;;;0.63;0.60;;;;;;;9.71;57.16;96432.16;4988084;28;20078;-81
2023/12/25 08:24:51;;;;;;;1.05;0.77;;;;;;;9.69;55.21;96429.72;4988096;28;20073;-81
2023/12/25 08:27:20;;;;;;;0.60;0.40;;;;;;;9.72;57.65;96427.75;4987988;28;20054;-81
2023/12/25 08:29:48;;;;;;;1.00;0.50;;;;;;;9.71;54.23;96432.16;4987941;28;20109;-81
2023/12/25 08:32:16;;;;;;;1.60;0.50;;;;;;;9.70;56.04;96426.13;4989423;28;20059;-81
2023/12/25 08:34:44;;;;;;;2.17;0.70;;;;;;;9.73;54.93;96435.41;4989238;28;20279;-81
2023/12/25 08:37:12;;;;;;;0.77;0.60;;;;;;;9.77;56.55;96434.03;4988752;28;20070;-81
2023/12/25 08:39:41;;;;;;;0.68;0.50;;;;;;;9.82;56.94;96449.16;4987627;28;20436;-81
2023/12/25 08:42:08;;;;;;;0.75;0.20;;;;;;;9.83;55.99;96454.16;4986805;28;20054;-81
2023/12/25 08:44:37;;;;;;;1.70;0.52;;;;;;;9.84;54.17;96468.00;4986287;28;20127;-81
2023/12/25 08:47:06;;;;;;;1.02;0.60;;;;;;;9.83;55.30;96475.00;4985637;28;20054;-81
2023/12/25 08:49:34;;;;;;;0.65;0.40;;;;;;;9.80;53.43;96477.97;4985702;28;20043;-81
2023/12/25 08:52:02;;;;;;;0.45;0.40;;;;;;;9.79;53.72;96491.97;4987043;28;20053;-81
2023/12/25 08:54:30;;;;;;;0.40;0.32;;;;;;;9.78;52.44;96486.97;4987244;28;20110;-81
2023/12/25 08:56:59;;;;;;;0.60;0.50;;;;;;;9.76;52.28;96486.31;4987666;28;20050;-81
2023/12/25 08:59:28;;;;;;;3.30;2.28;;;;;;;9.77;54.69;96498.34;4983872;28;20512;-81
2023/12/25 09:01:57;;;;;;;14.63;8.63;;;;;;;9.75;57.36;96495.13;4984063;28;20101;-81
2023/12/25 09:04:25;;;;;;;1.95;1.35;;;;;;;9.69;53.65;96492.25;4976153;28;20050;-81
2023/12/25 09:06:53;;;;;;;2.35;0.88;;;;;;;9.67;55.64;96514.25;4999453;28;20047;-81
2023/12/25 09:09:25;;;;;;;28.55;14.23;;;;;;;9.65;55.61;96511.81;5010781;28;20034;-82
2023/12/25 09:11:54;;;;;;;13.15;6.70;;;;;;;9.65;55.30;96511.00;5010062;28;20057;-82
2023/12/25 09:16:51;;;;;;;0.40;0.40;;;;;;;9.63;52.29;96502.56;4998629;28;20106;-81
2023/12/25 09:19:55;;;;;;;0.82;0.50;;;;;;;9.61;53.83;96505.34;5850913;23;20077;-82
2023/12/25 09:22:42;;;;;;;0.50;0.40;;;;;;;9.63;54.76;96505.97;5290112;23;20033;-81
2023/12/25 09:25:14;;;;;;;1.23;1.02;;;;;;;9.63;52.96;96512.97;5038355;28;20053;-82
2023/12/25 09:27:50;;;;;;;1.08;0.60;;;;;;;9.59;53.50;96496.09;5088324;23;20037;-82
2023/12/25 09:30:19;;;;;;;13.38;8.25;;;;;;;9.58;52.13;96489.28;5037637;28;20041;-82
2023/12/25 09:32:48;;;;;;;20.15;11.82;;;;;;;9.62;52.54;96491.34;5030012;28;20050;-81
2023/12/25 09:35:18;;;;;;;2.03;1.05;;;;;;;9.62;53.26;96500.94;5031276;28;20050;-81
2023/12/25 09:37:47;;;;;;;1.20;0.70;;;;;;;9.62;52.67;96503.53;5032177;28;20049;-81
2023/12/25 09:40:15;;;;;;;1.00;0.57;;;;;;;9.64;52.88;96501.56;5028135;28;20108;-82
2023/12/25 09:42:45;;;;;;;0.82;0.60;;;;;;;9.64;51.51;96498.97;5027350;28;20054;-82
2023/12/25 09:45:16;;;;;;;1.88;0.43;;;;;;;9.65;55.96;96498.00;5026824;28;20054;-82
2023/12/25 09:47:45;;;;;;;0.57;0.57;;;;;;;9.65;54.82;96495.38;5028026;28;20053;-82
2023/12/25 09:50:14;;;;;;;0.55;0.55;;;;;;;9.67;57.94;96509.03;5030791;28;20049;-82
2023/12/25 09:52:42;;;;;;;0.85;0.70;;;;;;;9.68;55.92;96501.03;5027991;28;20053;-82
2023/12/25 09:55:12;;;;;;;0.60;0.60;;;;;;;9.69;56.74;96497.44;5027504;28;20064;-82
2023/12/25 09:57:41;;;;;;;0.73;0.60;;;;;;;9.74;59.75;96503.94;5020102;28;20049;-81
2023/12/25 10:00:10;;;;;;;1.45;0.70;;;;;;;9.75;60.36;96502.94;5024580;28;20065;-82
2023/12/25 10:02:45;;;;;;;29.60;18.33;;;;;;;9.77;55.67;96493.94;5022592;28;20234;-82
2023/12/25 10:05:13;;;;;;;4.28;2.47;;;;;;;9.78;56.16;96495.56;5006975;28;20101;-81
2023/12/25 10:07:42;;;;;;;3.63;1.50;;;;;;;9.81;55.18;96502.22;5013293;28;20049;-81
2023/12/25 10:10:10;;;;;;;3.28;1.45;;;;;;;9.81;56.57;96500.41;5011276;28;20136;-81
2023/12/25 10:12:43;;;;;;;16.45;10.77;;;;;;;9.83;55.33;96489.81;5001490;28;20054;-82
2023/12/25 10:15:11;;;;;;;10.32;6.45;;;;;;;9.83;54.37;96498.44;5004969;28;20050;-81
2023/12/25 10:17:38;;;;;;;3.40;2.28;;;;;;;9.85;53.67;96496.47;4999531;28;20078;-81
2023/12/25 10:20:08;;;;;;;4.35;3.00;;;;;;;9.87;56.39;96499.69;5008880;28;20046;-81
2023/12/25 10:22:38;;;;;;;2.40;0.90;;;;;;;9.88;54.42;96490.09;5002875;28;20056;-81
2023/12/25 10:25:07;;;;;;;1.15;0.63;;;;;;;9.90;56.45;96488.94;5018613;28;20058;-81
2023/12/25 10:27:35;;;;;;;3.75;0.85;;;;;;;9.93;56.67;96489.53;5018744;28;20058;-82
2023/12/25 10:30:16;;;;;;;0.70;0.57;;;;;;;9.96;59.75;96473.56;5013538;28;20101;-81
2023/12/25 10:32:44;;;;;;;1.05;0.50;;;;;;;9.99;57.65;96481.00;5017925;28;20053;-81
2023/12/25 10:35:14;;;;;;;1.48;0.60;;;;;;;9.98;59.78;96480.22;5017640;28;20056;-81
2023/12/25 10:37:43;;;;;;;0.45;0.45;;;;;;;9.98;57.78;96458.56;5017306;28;20046;-81
2023/12/25 10:40:20;;;;;;;13.48;7.75;;;;;;;10.01;57.72;96471.22;5015788;28;20053;-81
2023/12/25 10:42:51;;;;;;;55.75;33.03;;;;;;;10.04;58.54;96457.84;5000233;28;20054;-79
2023/12/25 10:45:23;;;;;;;41.65;25.88;;;;;;;10.09;60.81;96460.69;4997484;28;20077;-79
2023/12/25 10:47:53;;;;;;;5.43;3.65;;;;;;;10.15;58.92;96459.97;4996177;28;20062;-80
2023/12/25 10:50:24;;;;;;;1.27;0.95;;;;;;;10.20;57.94;96460.22;4997684;28;20133;-81
2023/12/25 10:52:54;;;;;;;0.73;0.47;;;;;;;10.25;57.49;96457.06;4997214;28;20598;-81
2023/12/25 13:57:40;;;;;;;0.40;0.40;;;;;;;11.07;67.08;96441.06;5916733;22;20100;-82
2023/12/25 14:11:11;;;;;;;1.33;0.82;;;;;;;11.10;68.27;96438.06;5511522;23;20074;-83
2023/12/25 14:21:47;;;;;;;26.57;17.47;;;;;;;11.18;68.54;96439.75;5904390;23;20093;-80
2023/12/25 14:26:53;;;;;;;37.90;23.38;;;;;;;11.19;70.15;96443.16;5435292;23;20054;-80
2023/12/25 14:49:01;;;;;;;0.60;0.60;;;;;;;11.16;69.92;96446.97;5613667;23;19937;-85
2023/12/25 15:29:42;;;;;;;0.20;0.20;;;;;;;11.01;69.84;96474.94;5016906;28;20039;-81
2023/12/25 15:32:14;;;;;;;1.30;0.60;;;;;;;11.01;69.20;96467.91;5020023;28;20034;-81
2023/12/25 15:34:50;;;;;;;2.20;1.08;;;;;;;11.02;69.11;96481.75;5020063;28;20039;-81
2023/12/25 15:37:24;;;;;;;4.75;3.42;;;;;;;11.02;68.33;96479.16;5019684;28;20056;-81
2023/12/25 15:39:53;;;;;;;0.75;0.68;;;;;;;11.03;68.72;96488.63;5019762;28;20034;-81
2023/12/25 15:48:05;;;;;;;0.30;0.30;;;;;;;10.99;68.85;96480.34;5010925;23;20039;-79
2023/12/25 15:50:54;;;;;;;0.77;0.43;;;;;;;11.00;69.37;96478.53;5000443;28;20046;-80
2023/12/25 15:53:31;;;;;;;0.85;0.43;;;;;;;10.97;69.13;96487.53;5000455;28;20035;-80
2023/12/25 15:59:20;;;;;;;27.75;15.43;;;;;;;10.97;69.64;96491.97;5000629;28;20055;-81
2023/12/25 16:01:56;;;;;;;69.28;48.58;;;;;;;10.93;69.83;96489.75;4999783;28;20058;-80
2023/12/25 16:04:56;;;;;;;34.30;22.20;;;;;;;10.97;68.93;96495.38;5000389;28;20030;-81
2023/12/25 16:07:53;;;;;;;4.28;2.63;;;;;;;10.97;69.95;96495.38;5000315;28;20062;-81
2023/12/25 16:10:56;;;;;;;1.58;1.30;;;;;;;10.99;73.08;96498.59;5000473;28;20049;-82
2023/12/25 16:13:45;;;;;;;0.88;0.65;;;;;;;10.99;70.83;96498.59;5000276;28;20034;-80
2023/12/25 16:16:20;;;;;;;1.17;0.60;;;;;;;10.97;70.52;96495.38;5000539;28;20055;-79
2023/12/25 16:19:09;;;;;;;0.20;0.20;;;;;;;10.94;70.50;96495.75;5000090;28;20061;-80
2023/12/25 16:22:06;;;;;;;1.20;0.50;;;;;;;10.92;71.11;96508.97;5000041;28;20042;-80
2023/12/25 16:31:35;;;;;;;0.90;0.40;;;;;;;10.92;72.02;96497.75;5254454;23;20041;-80
2023/12/25 16:34:23;;;;;;;0.50;0.50;;;;;;;10.93;70.73;96504.56;5019349;28;20031;-83
2023/12/25 16:37:08;;;;;;;0.63;0.50;;;;;;;10.92;72.31;96508.19;5789005;23;20038;-83
2023/12/25 16:45:39;;;;;;;1.52;0.57;;;;;;;10.90;72.49;96504.94;5018161;28;20102;-80
2023/12/25 19:06:05;;;;;;;2.35;1.38;;;;;;;10.79;68.17;96528.94;4959385;28;20134;-72
2023/12/25 19:42:19;;;;;;;1.15;1.00;;;;;;;10.90;68.98;96526.63;5063858;23;20082;-79
2023/12/25 22:05:59;;;;;;;2.40;1.00;;;;;;;10.30;65.60;96452.97;5865353;23;20043;-79
2023/12/25 22:08:27;;;;;;;3.65;1.52;;;;;;;10.29;63.47;96448.72;4976007;28;20296;-78
2023/12/25 22:10:54;;;;;;;2.25;1.20;;;;;;;10.26;63.15;96451.69;4976384;28;20488;-78
2023/12/25 22:13:23;;;;;;;3.85;1.90;;;;;;;10.27;63.27;96448.06;4976240;28;20138;-78
2023/12/25 22:15:51;;;;;;;2.45;1.52;;;;;;;10.27;64.27;96449.88;4975866;28;20050;-78
2023/12/25 22:18:18;;;;;;;3.78;1.48;;;;;;;10.23;61.82;96452.06;4975395;28;20732;-78
2023/12/25 22:20:46;;;;;;;1.67;1.02;;;;;;;10.22;60.74;96460.06;4976265;28;20057;-78
2023/12/25 22:23:15;;;;;;;3.72;1.00;;;;;;;10.20;63.36;96465.44;4976098;28;20061;-78
2023/12/25 22:25:43;;;;;;;1.65;1.35;;;;;;;10.20;61.27;96464.63;4976257;28;20054;-78
2023/12/25 22:28:11;;;;;;;25.15;14.07;;;;;;;10.19;60.47;96463.84;4976386;28;20051;-78
2023/12/25 22:30:38;;;;;;;44.47;27.60;;;;;;;10.20;63.57;96468.03;4975722;28;20046;-78
2023/12/25 22:33:06;;;;;;;4.75;2.78;;;;;;;10.19;62.35;96468.22;4976017;28;20050;-78
2023/12/25 22:35:34;;;;;;;2.65;1.33;;;;;;;10.15;59.61;96459.97;4975992;28;20089;-78
2023/12/25 22:38:02;;;;;;;1.88;1.13;;;;;;;10.13;61.06;96456.75;4975688;28;20055;-78
2023/12/25 22:40:31;;;;;;;1.92;1.40;;;;;;;10.10;59.93;96457.09;4974556;28;20121;-78
2023/12/25 22:42:58;;;;;;;3.10;1.55;;;;;;;10.07;61.32;96442.63;4975472;28;20061;-78
2023/12/25 22:45:26;;;;;;;1.67;1.30;;;;;;;10.06;61.50;96448.03;4975829;28;20055;-78
2023/12/25 22:47:53;;;;;;;2.88;1.70;;;;;;;10.05;61.40;96449.03;4975430;28;20058;-78
2023/12/25 22:50:22;;;;;;;2.10;1.40;;;;;;;10.04;62.25;96443.00;4975227;28;20047;-78
2023/12/25 22:52:50;;;;;;;2.50;1.85;;;;;;;10.04;62.09;96426.56;4975521;28;20096;-78
2023/12/25 22:55:17;;;;;;;2.08;1.50;;;;;;;10.03;61.47;96424.94;4975433;28;20165;-78
2023/12/25 22:57:46;;;;;;;1.52;1.27;;;;;;;10.01;65.47;96422.50;4974957;28;20532;-78
2023/12/25 23:00:19;;;;;;;1.15;1.05;;;;;;;9.99;62.53;96418.47;4974810;28;20536;-78
2023/12/25 23:02:47;;;;;;;2.55;1.55;;;;;;;9.96;64.03;96411.81;4975576;28;20445;-78
2023/12/25 23:05:15;;;;;;;2.10;1.58;;;;;;;9.94;61.79;96420.81;4975326;28;20157;-78
2023/12/25 23:07:43;;;;;;;1.92;1.25;;;;;;;9.87;62.08;96421.53;4974896;28;20051;-78
2023/12/25 23:10:11;;;;;;;2.63;1.55;;;;;;;9.84;63.20;96414.09;4974495;28;20105;-78
2023/12/25 23:12:38;;;;;;;1.70;1.00;;;;;;;9.85;63.78;96412.28;4975288;28;20082;-78
2023/12/25 23:15:08;;;;;;;2.95;1.40;;;;;;;9.84;62.29;96410.69;4975278;28;20078;-78
2023/12/25 23:17:36;;;;;;;2.50;1.27;;;;;;;9.83;63.03;96409.88;4980737;28;20114;-79
2023/12/25 23:20:05;;;;;;;1.33;0.98;;;;;;;9.85;64.52;96392.25;4982773;28;20051;-78
2023/12/25 23:22:33;;;;;;;1.60;1.23;;;;;;;9.84;63.55;96395.06;4984173;28;20054;-78
2023/12/25 23:25:01;;;;;;;2.63;1.00;;;;;;;9.81;62.44;96391.00;4980456;28;20054;-79
2023/12/25 23:27:28;;;;;;;2.13;1.30;;;;;;;9.80;63.49;96389.41;4974947;28;20053;-78
2023/12/25 23:29:56;;;;;;;3.10;1.08;;;;;;;9.79;62.26;96379.94;4974719;28;20397;-78
2023/12/25 23:32:25;;;;;;;2.53;1.48;;;;;;;9.74;60.17;96386.72;4974938;28;20058;-78
2023/12/25 23:34:53;;;;;;;2.13;1.33;;;;;;;9.71;61.35;96380.06;4974444;28;20055;-78
2023/12/25 23:37:20;;;;;;;1.75;1.60;;;;;;;9.71;62.14;96385.28;4974784;28;20054;-78
2023/12/25 23:39:48;;;;;;;1.60;1.30;;;;;;;9.70;62.99;96387.06;4974342;28;20090;-78